Time;durP1;ratioP1;P1;durP2;ratioP2;P2;SDS_P1;SDS_P2;PMS_P1;PMS_P2;Temp;Humidity;BMP_temperature;BMP_pressure;BME280_temperature;BME280_humidity;BME280_pressure;Samples;Min_cycle;Max_cycle;Signal;HPM_P1;HPM_P2
2022/08/04 00:01:57;;;;;;;10.07;2.40;;;;;;;27.09;47.80;101161.63;5064017;28;20046;-67
2022/08/04 00:04:32;;;;;;;5.25;2.45;;;;;;;27.02;48.06;101152.22;5064233;28;20099;-67
2022/08/04 00:07:08;;;;;;;4.95;2.47;;;;;;;27.04;48.39;101161.78;5062180;28;20080;-67
2022/08/04 00:09:42;;;;;;;5.40;2.25;;;;;;;27.04;48.01;101158.22;5063283;28;20052;-67
2022/08/04 00:12:11;;;;;;;5.78;2.80;;;;;;;26.98;47.94;101152.06;5062380;28;20076;-67
2022/08/04 00:14:48;;;;;;;7.10;2.72;;;;;;;27.03;48.07;101153.84;5064281;28;20501;-67
2022/08/04 00:17:20;;;;;;;7.70;2.55;;;;;;;27.02;48.41;101152.22;5062910;28;20053;-67
2022/08/04 00:19:49;;;;;;;6.78;2.30;;;;;;;27.00;48.25;101151.72;5063010;28;20107;-67
2022/08/04 00:22:22;;;;;;;5.75;2.30;;;;;;;26.99;48.07;101153.66;5062992;28;20051;-67
2022/08/04 00:24:49;;;;;;;3.58;2.20;;;;;;;26.99;48.27;101150.91;5061023;28;20072;-67
2022/08/04 00:27:17;;;;;;;4.95;2.17;;;;;;;26.97;48.16;101147.66;5062840;28;20172;-67
2022/08/04 00:29:47;;;;;;;4.63;2.22;;;;;;;26.97;48.16;101155.13;5063427;28;20063;-67
2022/08/04 00:32:19;;;;;;;6.72;2.30;;;;;;;26.95;48.10;101149.91;5063189;28;20049;-67
2022/08/04 00:35:02;;;;;;;4.90;2.35;;;;;;;26.93;48.24;101143.91;5061760;28;20413;-67
2022/08/04 00:37:30;;;;;;;5.70;2.60;;;;;;;26.92;48.28;101145.84;5063330;28;20045;-67
2022/08/04 00:39:57;;;;;;;6.75;2.63;;;;;;;26.91;48.28;101140.66;5061471;28;20056;-67
2022/08/04 00:42:42;;;;;;;4.78;2.25;;;;;;;26.89;48.14;101137.41;5061600;28;20132;-67
2022/08/04 00:46:02;;;;;;;5.55;2.53;;;;;;;26.87;48.10;101139.69;5063387;28;20045;-67
2022/08/04 00:49:10;;;;;;;5.25;2.80;;;;;;;26.84;48.20;101130.13;5062251;28;20088;-67
2022/08/04 00:51:50;;;;;;;5.25;2.25;;;;;;;26.82;48.16;101126.88;5058486;28;20088;-67
2022/08/04 00:54:45;;;;;;;5.82;2.30;;;;;;;26.82;48.12;101134.34;5063557;28;20047;-67
2022/08/04 00:57:30;;;;;;;9.48;2.90;;;;;;;26.79;48.35;101132.22;5060445;28;20095;-67
2022/08/04 01:00:08;;;;;;;3.70;2.20;;;;;;;26.78;48.17;101130.59;5058623;28;20049;-67
2022/08/04 01:02:45;;;;;;;7.05;2.72;;;;;;;26.75;48.05;101126.53;5061096;28;20072;-67
2022/08/04 01:05:21;;;;;;;9.93;2.10;;;;;;;26.74;48.30;101124.91;5062752;28;20056;-67
2022/08/04 01:08:11;;;;;;;6.03;2.33;;;;;;;26.72;48.07;101132.69;5061845;28;20083;-67
2022/08/04 01:10:51;;;;;;;4.85;2.35;;;;;;;26.70;48.22;101123.13;5049926;28;20056;-67
2022/08/04 01:13:42;;;;;;;6.88;2.92;;;;;;;26.65;48.44;101121.34;5051786;28;20538;-67
2022/08/04 01:16:15;;;;;;;4.63;2.50;;;;;;;26.65;48.19;101118.59;5063094;28;20482;-67
2022/08/04 01:19:00;;;;;;;4.57;2.83;;;;;;;26.63;48.21;101122.81;5062815;28;20091;-67
2022/08/04 01:21:54;;;;;;;8.45;2.35;;;;;;;26.58;48.30;101115.50;5062791;28;20045;-67
2022/08/04 01:24:36;;;;;;;7.78;2.20;;;;;;;26.55;48.42;101114.19;5063907;28;20049;-66
2022/08/04 01:27:09;;;;;;;4.63;2.50;;;;;;;26.51;48.25;101107.72;5062293;28;20173;-67
2022/08/04 01:29:47;;;;;;;6.25;2.45;;;;;;;26.50;48.39;101113.53;5061341;28;20442;-67
2022/08/04 01:32:20;;;;;;;5.82;2.20;;;;;;;26.47;48.42;101112.25;5062750;28;20073;-67
2022/08/04 01:35:00;;;;;;;4.72;2.20;;;;;;;26.44;48.45;101109.31;5061769;28;20553;-67
2022/08/04 01:37:49;;;;;;;3.63;2.05;;;;;;;26.43;48.40;101105.75;5062776;28;20054;-67
2022/08/04 01:40:17;;;;;;;4.47;2.03;;;;;;;26.41;48.52;101099.75;5062535;28;20055;-67
2022/08/04 01:42:45;;;;;;;3.85;2.17;;;;;;;26.36;48.46;101093.59;5061727;28;20056;-67
2022/08/04 01:45:15;;;;;;;4.32;2.20;;;;;;;26.36;48.56;101102.66;5063190;28;20049;-67
2022/08/04 01:47:50;;;;;;;6.18;2.75;;;;;;;26.35;48.55;101101.03;5066536;28;20048;-67
2022/08/04 01:50:18;;;;;;;3.58;2.22;;;;;;;26.33;48.43;101097.78;5065597;28;20075;-67
2022/08/04 01:52:46;;;;;;;4.00;2.20;;;;;;;26.30;48.49;101095.66;5066579;28;20053;-67
2022/08/04 01:55:18;;;;;;;6.20;2.42;;;;;;;26.27;48.54;101094.34;5065657;28;20077;-67
2022/08/04 01:57:47;;;;;;;7.05;2.60;;;;;;;26.26;48.49;101098.22;5066261;28;20115;-67
2022/08/04 02:00:19;;;;;;;4.63;2.40;;;;;;;26.25;48.52;101096.63;5065160;28;20140;-67
2022/08/04 02:02:49;;;;;;;10.10;2.65;;;;;;;26.22;48.47;101094.50;5066775;28;20067;-67
2022/08/04 02:05:19;;;;;;;5.75;2.28;;;;;;;26.21;48.51;101090.13;5066242;28;20062;-67
2022/08/04 02:07:59;;;;;;;5.25;2.10;;;;;;;26.19;48.48;101084.13;5066415;28;20552;-67
2022/08/04 02:10:29;;;;;;;6.72;2.22;;;;;;;26.17;48.47;101089.13;5063319;28;20072;-67
2022/08/04 02:13:09;;;;;;;11.63;2.88;;;;;;;26.16;48.61;101083.94;5066358;28;20053;-67
2022/08/04 02:15:47;;;;;;;6.38;2.28;;;;;;;26.14;48.60;101078.75;5064533;28;20098;-66
2022/08/04 02:18:22;;;;;;;9.60;2.70;;;;;;;26.13;48.49;101076.31;5054300;28;20084;-67
2022/08/04 02:20:57;;;;;;;6.07;2.38;;;;;;;26.12;48.63;101074.69;5065876;28;20048;-67
2022/08/04 02:23:30;;;;;;;4.82;2.33;;;;;;;26.10;48.54;101080.53;5064003;28;20133;-67
2022/08/04 02:26:01;;;;;;;5.88;2.30;;;;;;;26.08;48.68;101069.03;5066189;28;20071;-67
2022/08/04 02:28:33;;;;;;;5.43;2.53;;;;;;;26.08;48.60;101070.97;5064773;28;20045;-67
2022/08/04 02:31:15;;;;;;;7.82;2.55;;;;;;;26.07;48.41;101074.84;5064986;28;20084;-66
2022/08/04 02:33:44;;;;;;;6.57;2.35;;;;;;;26.04;48.48;101065.28;5065542;28;20053;-67
2022/08/04 02:36:19;;;;;;;5.43;2.30;;;;;;;26.03;48.68;101068.34;5066074;28;20067;-67
2022/08/04 02:38:59;;;;;;;5.22;2.30;;;;;;;26.02;48.62;101063.97;5065225;28;20076;-67
2022/08/04 02:41:28;;;;;;;6.43;2.22;;;;;;;25.99;48.78;101064.66;5061114;28;20295;-67
2022/08/04 02:43:58;;;;;;;3.53;2.10;;;;;;;25.99;48.70;101061.91;5064310;28;20088;-67
2022/08/04 02:46:29;;;;;;;4.25;2.40;;;;;;;25.98;48.67;101058.34;5065110;28;20044;-67
2022/08/04 02:48:57;;;;;;;6.90;2.30;;;;;;;25.97;48.69;101064.16;5065019;28;20072;-67
2022/08/04 02:51:28;;;;;;;9.20;2.10;;;;;;;25.94;48.62;101057.34;5063618;28;20081;-67
2022/08/04 02:53:58;;;;;;;5.88;2.28;;;;;;;25.92;48.65;101054.09;5065963;28;20084;-67
2022/08/04 02:56:31;;;;;;;3.80;2.20;;;;;;;25.90;48.69;101040.66;5055160;28;20041;-67
2022/08/04 02:59:01;;;;;;;5.45;2.08;;;;;;;25.88;48.71;101042.09;5063897;28;20076;-67
2022/08/04 03:01:30;;;;;;;8.65;2.13;;;;;;;25.87;48.70;101046.81;5064653;28;20079;-67
2022/08/04 03:04:13;;;;;;;4.95;1.83;;;;;;;25.85;48.86;101040.81;5061929;28;20045;-67
2022/08/04 03:07:29;;;;;;;4.07;1.80;;;;;;;25.84;48.86;101044.69;5064657;28;20049;-66
2022/08/04 03:10:37;;;;;;;6.82;2.03;;;;;;;25.82;48.67;101035.13;5062821;28;20053;-67
2022/08/04 03:13:44;;;;;;;6.60;2.65;;;;;;;25.79;48.86;101039.31;5053794;28;20055;-67
2022/08/04 03:17:00;;;;;;;5.40;2.20;;;;;;;25.77;48.96;101038.03;5062968;28;20037;-67
2022/08/04 03:20:09;;;;;;;7.07;2.40;;;;;;;25.74;48.87;101038.66;5002592;28;20090;-67
2022/08/04 03:23:10;;;;;;;4.07;2.22;;;;;;;25.71;48.73;101028.28;4996050;28;20050;-67
2022/08/04 03:26:19;;;;;;;5.60;1.95;;;;;;;25.68;49.00;101031.69;4998401;28;20535;-67
2022/08/04 03:29:16;;;;;;;6.22;2.08;;;;;;;25.65;48.92;101033.13;4999373;28;20074;-67
2022/08/04 03:32:32;;;;;;;4.57;2.22;;;;;;;25.62;48.96;101029.03;5001790;28;20055;-67
2022/08/04 03:35:16;;;;;;;5.60;2.40;;;;;;;25.60;49.10;101031.28;5002775;28;20054;-67
2022/08/04 03:38:12;;;;;;;7.50;2.80;;;;;;;25.57;48.93;101025.63;5001535;28;20053;-67
2022/08/04 03:41:14;;;;;;;7.28;2.35;;;;;;;25.54;48.92;101016.06;5000848;28;20094;-67
2022/08/04 03:44:01;;;;;;;3.92;2.17;;;;;;;25.52;49.11;101023.00;5001258;28;20049;-67
2022/08/04 03:47:00;;;;;;;7.45;2.70;;;;;;;25.50;48.97;101025.28;5001013;28;20074;-67
2022/08/04 03:49:52;;;;;;;5.60;2.15;;;;;;;25.46;49.27;101030.59;5003357;28;20095;-67
2022/08/04 03:53:08;;;;;;;8.88;2.50;;;;;;;25.41;48.96;101035.44;4999478;28;20181;-67
2022/08/04 03:56:15;;;;;;;7.20;3.17;;;;;;;25.40;49.11;101042.06;5038459;28;20053;-67
2022/08/04 03:59:20;;;;;;;4.75;2.13;;;;;;;25.38;49.13;101038.81;5060520;28;20187;-67
2022/08/04 04:02:08;;;;;;;7.70;2.60;;;;;;;25.37;49.43;101049.00;5053381;28;20562;-67
2022/08/04 04:05:07;;;;;;;6.18;2.30;;;;;;;25.34;49.37;101057.09;5064029;28;20041;-67
2022/08/04 04:07:58;;;;;;;7.20;2.30;;;;;;;25.30;49.44;101057.72;5029475;28;20045;-67
2022/08/04 04:10:50;;;;;;;5.75;2.10;;;;;;;25.30;49.41;101062.41;5061875;28;20501;-67
2022/08/04 04:13:34;;;;;;;5.63;2.10;;;;;;;25.28;49.28;101053.66;5052205;28;20081;-67
2022/08/04 04:16:25;;;;;;;5.03;2.25;;;;;;;25.20;49.41;101066.22;5060277;28;20101;-67
2022/08/04 04:19:32;;;;;;;8.30;2.03;;;;;;;25.27;49.45;101074.03;5062462;28;20083;-67
2022/08/04 04:22:28;;;;;;;5.70;2.20;;;;;;;25.26;49.16;101067.72;5063009;28;20056;-67
2022/08/04 04:25:22;;;;;;;7.40;3.03;;;;;;;25.24;49.18;101067.22;5062769;28;20080;-67
2022/08/04 04:28:06;;;;;;;8.85;2.47;;;;;;;25.24;49.22;101072.72;5061858;28;20056;-67
2022/08/04 04:31:07;;;;;;;4.72;2.05;;;;;;;25.23;49.17;101073.84;5052797;28;20072;-67
2022/08/04 04:33:49;;;;;;;5.40;2.45;;;;;;;25.21;49.25;101069.78;5062113;28;20497;-66
2022/08/04 04:36:26;;;;;;;10.05;3.00;;;;;;;25.20;49.27;101068.16;5062565;28;20080;-66
2022/08/04 04:39:19;;;;;;;8.38;2.60;;;;;;;25.20;49.41;101068.97;5060095;28;20045;-67
2022/08/04 04:42:12;;;;;;;7.68;2.60;;;;;;;25.18;49.25;101068.47;4705752;28;9999990;-66
2022/08/04 04:44:55;;;;;;;7.43;2.75;;;;;;;25.17;49.19;101069.59;5042028;28;20049;-67
2022/08/04 04:47:33;;;;;;;6.30;2.35;;;;;;;25.14;49.11;101056.50;5056286;28;20187;-66
2022/08/04 04:50:28;;;;;;;;;;;;;;;25.15;49.21;101066.34;5054007;28;20053;-66
2022/08/04 04:53:11;;;;;;;5.95;2.65;;;;;;;25.15;49.43;101066.34;5055610;28;20098;-66
2022/08/04 04:55:47;;;;;;;7.30;3.03;;;;;;;25.13;49.49;101070.56;5055435;28;20550;-67
2022/08/04 04:58:18;;;;;;;6.32;2.75;;;;;;;25.12;49.50;101071.69;5054795;28;20052;-69
2022/08/04 05:01:20;;;;;;;8.18;2.35;;;;;;;25.12;49.19;101079.94;5060390;28;20068;-67
2022/08/04 05:04:07;;;;;;;6.43;2.10;;;;;;;25.11;49.36;101079.13;5059570;28;20048;-65
2022/08/04 05:06:50;;;;;;;7.07;2.67;;;;;;;25.09;49.30;101081.38;5058784;28;20080;-67
2022/08/04 05:09:31;;;;;;;6.13;2.30;;;;;;;25.07;49.45;101080.88;5056816;28;20135;-67
2022/08/04 05:12:14;;;;;;;5.30;1.95;;;;;;;25.06;49.19;101087.50;5061925;28;20080;-67
2022/08/04 05:15:06;;;;;;;8.85;2.65;;;;;;;25.04;49.45;101092.50;5064529;28;20067;-66
2022/08/04 05:17:38;;;;;;;9.20;1.98;;;;;;;25.02;49.79;101088.44;5058946;28;20053;-65
2022/08/04 05:20:08;;;;;;;6.07;2.05;;;;;;;25.02;49.61;101092.00;5065058;28;20056;-64
2022/08/04 05:22:40;;;;;;;6.43;2.35;;;;;;;25.01;49.59;101086.81;5067666;28;20105;-65
2022/08/04 05:25:14;;;;;;;5.60;2.05;;;;;;;25.01;49.58;101084.06;5068179;28;20079;-64
2022/08/04 05:27:50;;;;;;;5.80;2.50;;;;;;;25.01;49.59;101090.38;5064542;28;20068;-64
2022/08/04 05:30:19;;;;;;;6.70;2.35;;;;;;;25.00;49.74;101088.75;5065277;28;20068;-65
2022/08/04 05:32:54;;;;;;;5.53;2.22;;;;;;;25.02;49.78;101083.75;5064976;28;20045;-65
2022/08/04 05:35:31;;;;;;;5.97;2.60;;;;;;;25.00;49.76;101086.00;5066175;28;20530;-63
2022/08/04 05:38:23;;;;;;;4.80;2.53;;;;;;;24.97;50.83;101072.88;5064454;28;20514;-67
2022/08/04 05:40:52;;;;;;;9.30;2.55;;;;;;;24.93;50.66;101069.91;5068144;28;20068;-63
2022/08/04 05:43:23;;;;;;;6.85;2.53;;;;;;;24.93;50.64;101069.91;5066496;28;20045;-63
2022/08/04 05:45:52;;;;;;;6.03;2.47;;;;;;;24.94;50.44;101070.72;5068059;28;20049;-63
2022/08/04 05:48:21;;;;;;;6.30;2.83;;;;;;;24.95;50.23;101053.09;5067376;28;20080;-63
2022/08/04 05:50:49;;;;;;;10.00;2.58;;;;;;;24.97;50.33;101057.19;5067117;28;20088;-63
2022/08/04 05:53:18;;;;;;;6.75;2.40;;;;;;;25.00;50.27;101053.00;5067511;28;20064;-63
2022/08/04 05:55:48;;;;;;;5.38;2.25;;;;;;;25.00;50.26;101052.19;5066918;28;20092;-63
2022/08/04 05:58:29;;;;;;;7.57;2.20;;;;;;;24.98;50.58;101050.56;5066478;28;20057;-63
2022/08/04 06:01:00;;;;;;;9.82;2.50;;;;;;;25.01;50.36;101065.63;5068108;28;20481;-63
2022/08/04 06:03:30;;;;;;;7.75;2.70;;;;;;;25.01;50.08;101065.63;5066069;28;20112;-63
2022/08/04 06:05:59;;;;;;;5.63;2.20;;;;;;;24.97;50.25;101059.94;5067823;28;20049;-63
2022/08/04 06:08:28;;;;;;;5.68;2.70;;;;;;;25.01;50.31;101064.81;5065426;28;20070;-63
2022/08/04 06:10:58;;;;;;;11.13;2.90;;;;;;;25.01;50.43;101062.88;5064734;28;20056;-63
2022/08/04 06:13:30;;;;;;;7.03;2.25;;;;;;;25.01;50.19;101059.31;5066874;28;20080;-62
2022/08/04 06:16:18;;;;;;;6.60;2.42;;;;;;;25.02;50.36;101071.94;5066602;28;20056;-65
2022/08/04 06:19:01;;;;;;;5.85;2.67;;;;;;;25.01;50.01;101065.63;5062327;28;20051;-65
2022/08/04 06:21:50;;;;;;;6.43;2.35;;;;;;;25.02;50.42;101066.44;5058892;28;20124;-66
2022/08/04 06:24:22;;;;;;;4.57;2.08;;;;;;;25.04;50.25;101072.44;5066161;28;20052;-65
2022/08/04 06:26:51;;;;;;;7.85;3.38;;;;;;;25.06;50.96;101070.19;5062626;28;20044;-65
2022/08/04 06:29:27;;;;;;;11.95;2.30;;;;;;;25.08;51.11;101068.75;5065986;28;20064;-66
2022/08/04 06:31:58;;;;;;;10.25;2.95;;;;;;;25.11;50.78;101072.81;5065521;28;20447;-66
2022/08/04 06:34:47;;;;;;;7.78;2.20;;;;;;;25.14;50.71;101080.44;5050018;28;20045;-66
2022/08/04 06:37:17;;;;;;;7.68;2.35;;;;;;;25.16;50.79;101076.25;5066214;28;20044;-66
2022/08/04 06:40:09;;;;;;;5.70;2.38;;;;;;;25.18;50.63;101079.50;5066598;28;20120;-66
2022/08/04 06:42:58;;;;;;;4.82;2.25;;;;;;;25.20;50.84;101088.25;5061573;28;20056;-63
2022/08/04 06:45:28;;;;;;;4.65;2.38;;;;;;;25.22;50.75;101093.44;5062388;28;20064;-65
2022/08/04 06:47:56;;;;;;;7.78;2.85;;;;;;;25.24;50.67;101094.75;5064528;28;20052;-65
2022/08/04 06:50:25;;;;;;;8.02;2.78;;;;;;;25.28;50.97;101097.66;5055300;28;20076;-65
2022/08/04 06:53:13;;;;;;;6.75;2.55;;;;;;;25.30;50.79;101093.47;5046374;28;20049;-66
2022/08/04 06:55:43;;;;;;;9.05;2.42;;;;;;;25.33;51.09;101086.53;5046798;28;20050;-65
2022/08/04 06:58:12;;;;;;;10.25;2.60;;;;;;;25.35;50.92;101087.03;5065097;28;20076;-65
2022/08/04 07:00:44;;;;;;;8.80;2.55;;;;;;;25.37;50.79;101097.72;5066788;28;20080;-66
2022/08/04 07:03:12;;;;;;;6.25;2.88;;;;;;;25.38;51.03;101091.09;5064044;28;20057;-66
2022/08/04 07:05:41;;;;;;;10.05;3.38;;;;;;;25.39;50.78;101098.22;5065730;28;20088;-65
2022/08/04 07:08:11;;;;;;;8.60;2.50;;;;;;;25.38;50.85;101089.16;5064212;28;20048;-65
2022/08/04 07:10:40;;;;;;;5.70;2.30;;;;;;;25.38;51.01;101089.16;5065212;28;20064;-66
2022/08/04 07:13:10;;;;;;;9.20;3.25;;;;;;;25.38;51.00;101091.09;5065322;28;20084;-65
2022/08/04 07:15:41;;;;;;;7.43;2.47;;;;;;;25.39;51.09;101098.22;5065324;28;20056;-66
2022/08/04 07:18:10;;;;;;;8.57;2.80;;;;;;;25.38;50.95;101097.41;5064376;28;20068;-65
2022/08/04 07:20:41;;;;;;;6.53;2.53;;;;;;;25.38;51.32;101093.84;5063986;28;20077;-65
2022/08/04 07:23:12;;;;;;;10.00;3.28;;;;;;;25.38;51.47;101096.59;5063664;28;20498;-65
2022/08/04 07:25:41;;;;;;;17.23;3.15;;;;;;;25.38;51.47;101093.84;5066365;28;20049;-65
2022/08/04 07:28:30;;;;;;;6.95;2.78;;;;;;;25.38;51.25;101104.84;5063512;28;20128;-65
2022/08/04 07:30:58;;;;;;;11.75;2.80;;;;;;;25.39;51.50;101111.97;5065531;28;20364;-65
2022/08/04 07:33:28;;;;;;;9.82;2.90;;;;;;;25.39;51.40;101112.78;5064757;28;20144;-65
2022/08/04 07:35:57;;;;;;;8.23;2.72;;;;;;;25.39;51.31;101106.47;5065149;28;20053;-65
2022/08/04 07:38:39;;;;;;;8.50;3.08;;;;;;;25.41;51.32;101120.72;5064822;28;20291;-66
2022/08/04 07:41:22;;;;;;;10.75;2.92;;;;;;;25.40;51.66;101108.91;5061196;28;20108;-65
2022/08/04 07:44:06;;;;;;;8.95;2.63;;;;;;;25.40;51.81;101106.16;5063627;28;20053;-65
2022/08/04 07:46:34;;;;;;;8.02;2.75;;;;;;;25.41;51.61;101098.72;5050424;28;20049;-64
2022/08/04 07:49:05;;;;;;;9.27;3.00;;;;;;;25.42;51.95;101103.09;5065006;28;20075;-64
2022/08/04 07:51:35;;;;;;;9.60;3.65;;;;;;;25.43;51.77;101107.47;5064314;28;20056;-63
2022/08/04 07:54:04;;;;;;;9.18;2.80;;;;;;;25.43;51.94;101111.03;5063579;28;20049;-64
2022/08/04 07:56:33;;;;;;;10.13;3.28;;;;;;;25.45;51.78;101106.03;5064326;28;20076;-63
2022/08/04 07:59:02;;;;;;;10.07;3.13;;;;;;;25.47;51.97;101106.53;5063623;28;20082;-64
2022/08/04 08:01:30;;;;;;;10.85;3.83;;;;;;;25.49;51.93;101107.03;5065067;28;20076;-64
2022/08/04 08:03:59;;;;;;;9.98;2.65;;;;;;;25.50;52.07;101116.91;5064944;28;20053;-64
2022/08/04 08:06:29;;;;;;;7.68;3.28;;;;;;;25.51;51.97;101124.03;5062324;28;20053;-63
2022/08/04 08:09:08;;;;;;;8.48;2.97;;;;;;;25.53;52.04;101127.28;5065201;28;20071;-63
2022/08/04 08:11:41;;;;;;;7.57;2.78;;;;;;;25.54;52.11;101119.84;5063737;28;20063;-63
2022/08/04 08:14:30;;;;;;;7.38;3.20;;;;;;;25.54;52.46;101128.91;5064849;28;20409;-63
2022/08/04 08:17:00;;;;;;;6.88;3.17;;;;;;;25.58;52.28;101126.34;5063424;28;20045;-63
2022/08/04 08:19:28;;;;;;;5.15;2.83;;;;;;;25.60;52.47;101124.06;5063279;28;20041;-64
2022/08/04 08:21:58;;;;;;;7.63;3.00;;;;;;;25.62;52.50;101122.63;5064384;28;20044;-64
2022/08/04 08:24:28;;;;;;;7.70;2.90;;;;;;;25.64;52.35;101122.31;5063416;28;20139;-64
2022/08/04 08:26:57;;;;;;;8.80;2.85;;;;;;;25.66;52.65;101125.59;5062178;28;20053;-64
2022/08/04 08:29:26;;;;;;;6.93;2.60;;;;;;;25.63;52.68;101117.94;5064527;28;20049;-65
2022/08/04 08:31:54;;;;;;;9.15;3.15;;;;;;;25.70;52.58;101139.53;5061326;28;20071;-65
2022/08/04 08:34:29;;;;;;;5.72;2.78;;;;;;;25.72;52.73;101145.53;5064012;28;20056;-63
2022/08/04 08:37:04;;;;;;;8.05;3.03;;;;;;;25.74;52.86;101140.53;5063260;28;20083;-64
2022/08/04 08:39:38;;;;;;;7.17;2.50;;;;;;;25.74;52.85;101149.59;5062976;28;20077;-64
2022/08/04 08:42:26;;;;;;;10.27;3.30;;;;;;;25.76;52.63;101141.84;5064128;28;20049;-63
2022/08/04 08:45:29;;;;;;;7.32;2.85;;;;;;;25.71;52.74;101138.41;5063163;28;20053;-64
2022/08/04 08:48:16;;;;;;;6.00;2.30;;;;;;;25.78;52.98;101153.34;5061951;28;20060;-64
2022/08/04 08:51:02;;;;;;;;;;;;;;;25.79;53.12;101166.00;5064749;28;20056;-64
2022/08/04 08:53:51;;;;;;;3.15;2.30;;;;;;;25.81;52.88;101163.72;5060703;28;19921;-64
2022/08/04 08:56:31;;;;;;;7.13;2.80;;;;;;;25.83;52.97;101160.66;5062534;28;20045;-64
2022/08/04 08:59:16;;;;;;;5.05;2.50;;;;;;;25.84;52.96;101159.53;5063225;28;20402;-65
2022/08/04 09:01:58;;;;;;;5.35;2.67;;;;;;;25.85;52.89;101163.91;5062937;28;20072;-65
2022/08/04 09:04:50;;;;;;;7.05;2.58;;;;;;;25.85;52.98;101169.41;5063469;28;20049;-65
2022/08/04 09:07:57;;;;;;;9.88;3.38;;;;;;;25.86;52.99;101174.59;5062760;28;20059;-65
2022/08/04 09:10:28;;;;;;;;;;;;;;;25.88;53.05;101174.28;5057554;28;20052;-65
2022/08/04 09:13:04;;;;;;;9.02;3.25;;;;;;;25.90;52.82;101172.84;5063324;28;19921;-65
2022/08/04 09:15:37;;;;;;;7.65;2.60;;;;;;;25.90;53.08;101177.53;5063532;28;20140;-65
2022/08/04 09:18:11;;;;;;;4.43;1.83;;;;;;;25.94;52.91;101179.34;5050457;28;20061;-65
2022/08/04 09:20:46;;;;;;;7.63;2.60;;;;;;;25.95;52.63;101174.66;5063036;28;20037;-63
2022/08/04 09:23:20;;;;;;;5.68;2.70;;;;;;;25.97;52.46;101171.59;5062837;28;20063;-63
2022/08/04 09:25:54;;;;;;;5.47;2.00;;;;;;;25.98;52.55;101173.19;5062108;28;20501;-64
2022/08/04 09:28:24;;;;;;;5.70;2.38;;;;;;;25.99;52.37;101183.91;5062755;28;20073;-64
2022/08/04 09:31:16;;;;;;;8.23;2.65;;;;;;;26.00;52.26;101190.22;5063136;28;20120;-64
2022/08/04 09:33:50;;;;;;;6.97;2.28;;;;;;;25.99;52.15;101197.69;5062367;28;20087;-63
2022/08/04 09:36:31;;;;;;;8.18;2.50;;;;;;;26.00;51.80;101199.31;5063517;28;20132;-64
2022/08/04 09:39:24;;;;;;;6.88;2.50;;;;;;;25.99;52.19;101205.13;5060213;28;20058;-63
2022/08/04 09:42:07;;;;;;;10.55;3.15;;;;;;;25.99;52.27;101208.69;5056139;28;20082;-64
2022/08/04 09:44:51;;;;;;;11.77;3.42;;;;;;;25.95;52.00;101202.19;5061179;28;20053;-64
2022/08/04 09:47:34;;;;;;;10.02;2.60;;;;;;;26.02;52.15;101216.28;5054137;28;20050;-64
2022/08/04 09:50:18;;;;;;;11.48;3.00;;;;;;;26.03;52.23;101211.59;5059465;28;20110;-64
2022/08/04 09:52:56;;;;;;;10.05;3.05;;;;;;;26.02;52.07;101213.53;5058572;28;20107;-63
2022/08/04 09:55:38;;;;;;;6.00;2.08;;;;;;;25.97;52.16;101221.97;5061362;28;20071;-64
2022/08/04 09:58:36;;;;;;;6.93;1.85;;;;;;;26.03;52.10;101223.44;5055756;28;20132;-65
2022/08/04 10:01:08;;;;;;;7.65;2.20;;;;;;;26.03;51.84;101215.16;5054759;28;20052;-65
2022/08/04 10:03:38;;;;;;;8.57;2.15;;;;;;;26.04;52.04;101218.72;5057003;28;20075;-65
2022/08/04 10:06:26;;;;;;;7.80;2.35;;;;;;;26.04;51.94;101222.31;5055377;28;20128;-65
2022/08/04 10:09:08;;;;;;;4.55;2.15;;;;;;;26.07;51.78;101234.63;5057232;28;20048;-65
2022/08/04 10:11:52;;;;;;;8.45;2.33;;;;;;;26.06;51.88;101244.84;5060379;28;20608;-67
2022/08/04 10:14:36;;;;;;;;;;;;;;;26.06;51.56;101266.88;5063178;28;20471;-67
2022/08/04 10:17:20;;;;;;;7.60;2.33;;;;;;;26.06;51.46;101258.59;5055058;28;20416;-67
2022/08/04 10:19:57;;;;;;;8.48;2.45;;;;;;;26.06;51.54;101255.03;5058499;28;20099;-67
2022/08/04 10:22:29;;;;;;;10.65;2.20;;;;;;;26.05;51.54;101268.00;5058735;28;20086;-67
2022/08/04 10:25:22;;;;;;;6.40;2.17;;;;;;;26.03;52.09;101288.72;5057703;28;20059;-67
2022/08/04 10:28:15;;;;;;;7.32;2.20;;;;;;;25.99;52.16;101288.56;5058066;28;20053;-67
2022/08/04 10:30:49;;;;;;;5.15;2.13;;;;;;;25.99;52.50;101304.28;5057543;28;20079;-67
2022/08/04 10:33:24;;;;;;;4.38;2.17;;;;;;;25.98;52.62;101303.47;5058250;28;20065;-65
2022/08/04 10:36:00;;;;;;;7.70;2.63;;;;;;;25.99;52.72;101290.50;5064981;28;20053;-67
2022/08/04 10:38:31;;;;;;;6.28;2.08;;;;;;;25.98;53.00;101273.19;5063913;28;20112;-67
2022/08/04 10:41:05;;;;;;;5.68;2.10;;;;;;;25.98;53.17;101267.66;5058786;28;20080;-67
2022/08/04 10:43:46;;;;;;;5.88;2.42;;;;;;;25.97;53.27;101240.44;5060118;28;20079;-67
2022/08/04 10:46:20;;;;;;;5.25;1.63;;;;;;;25.96;53.35;101223.09;5062545;28;20049;-67
2022/08/04 10:48:55;;;;;;;9.35;2.25;;;;;;;25.96;53.44;101203.00;5050643;28;20113;-67
2022/08/04 10:51:28;;;;;;;7.38;2.20;;;;;;;25.95;53.76;101215.97;5060527;28;20045;-67
2022/08/04 10:53:59;;;;;;;6.85;2.05;;;;;;;25.92;53.72;101222.91;5055630;28;20065;-68
2022/08/04 10:56:34;;;;;;;9.07;2.40;;;;;;;25.92;53.94;101228.44;5049648;28;20439;-68
2022/08/04 10:59:08;;;;;;;7.93;2.75;;;;;;;25.90;53.95;101225.19;5054773;28;20087;-68
2022/08/04 11:01:40;;;;;;;9.43;2.58;;;;;;;25.91;54.03;101235.06;5061003;28;20510;-68
2022/08/04 11:04:37;;;;;;;6.07;1.70;;;;;;;25.90;53.89;101241.69;5063639;28;20055;-68
2022/08/04 11:07:05;;;;;;;9.63;2.20;;;;;;;25.88;54.08;101246.72;5057337;28;20063;-68
2022/08/04 11:09:34;;;;;;;3.67;1.55;;;;;;;25.86;53.85;101256.41;5061589;28;20041;-66
2022/08/04 11:12:09;;;;;;;4.53;1.95;;;;;;;25.84;53.82;101253.97;5064512;28;20509;-66
2022/08/04 11:14:44;;;;;;;8.60;1.98;;;;;;;25.82;53.81;101256.22;5059077;28;20155;-65
2022/08/04 11:17:20;;;;;;;5.22;1.85;;;;;;;25.81;53.79;101243.59;5062048;28;20052;-66
2022/08/04 11:19:52;;;;;;;9.43;2.83;;;;;;;25.80;53.94;101227.38;5062025;28;20072;-68
2022/08/04 11:22:44;;;;;;;7.07;1.98;;;;;;;25.80;53.87;101230.13;5065390;28;20041;-68
2022/08/04 11:25:19;;;;;;;7.72;1.90;;;;;;;25.78;53.90;101230.44;5063963;28;20399;-67
2022/08/04 11:27:55;;;;;;;6.25;2.08;;;;;;;25.79;53.88;101234.81;5065064;28;20053;-68
2022/08/04 11:30:28;;;;;;;4.32;1.92;;;;;;;25.79;54.16;101236.78;5066253;28;20052;-68
2022/08/04 11:33:04;;;;;;;6.45;2.67;;;;;;;25.79;54.21;101237.59;5064514;28;20080;-68
2022/08/04 11:35:37;;;;;;;6.50;2.05;;;;;;;25.80;54.03;101239.22;5062865;28;20126;-67
2022/08/04 11:38:11;;;;;;;10.38;2.30;;;;;;;25.80;54.33;101241.16;5064180;28;20076;-68
2022/08/04 11:40:43;;;;;;;5.88;2.15;;;;;;;25.81;54.59;101240.03;5063379;28;20060;-67
2022/08/04 11:43:36;;;;;;;6.38;2.15;;;;;;;25.81;54.51;101234.50;5063391;28;20052;-68
2022/08/04 11:46:30;;;;;;;7.00;2.50;;;;;;;25.82;54.52;101227.88;5064076;28;20045;-67
2022/08/04 11:49:03;;;;;;;8.95;2.67;;;;;;;25.81;54.55;101221.56;5065364;28;20052;-67
2022/08/04 11:51:33;;;;;;;6.88;2.15;;;;;;;25.76;54.58;101221.69;5065220;28;20071;-67
2022/08/04 11:54:01;;;;;;;5.38;2.10;;;;;;;25.82;54.84;101239.72;5063646;28;20522;-67
2022/08/04 11:56:31;;;;;;;6.63;2.25;;;;;;;25.82;54.62;101245.22;5064164;28;20080;-67
2022/08/04 11:59:06;;;;;;;6.90;2.00;;;;;;;25.81;54.73;101240.84;5064034;28;20061;-67
2022/08/04 12:01:50;;;;;;;5.57;2.35;;;;;;;25.81;54.80;101234.50;5063332;28;20071;-67
2022/08/04 12:04:27;;;;;;;6.20;1.83;;;;;;;25.81;54.79;101235.31;5064620;28;20105;-67
2022/08/04 12:06:58;;;;;;;5.78;1.85;;;;;;;25.83;54.93;101240.53;5064629;28;20076;-67
2022/08/04 12:09:52;;;;;;;7.57;2.28;;;;;;;25.83;54.84;101255.09;5062805;28;20059;-67
2022/08/04 12:12:26;;;;;;;4.15;2.05;;;;;;;25.85;55.10;101252.03;5062836;28;20049;-67
2022/08/04 12:15:03;;;;;;;5.57;2.13;;;;;;;25.83;54.75;101252.34;5057676;28;20069;-67
2022/08/04 12:17:38;;;;;;;4.25;1.90;;;;;;;25.86;55.00;101251.72;5063937;28;20048;-67
2022/08/04 12:20:24;;;;;;;8.52;2.20;;;;;;;25.87;54.98;101261.59;5063208;28;20405;-67